sensor_id;sensor_type;location;lat;lon;timestamp;P1;durP1;ratioP1;P2;durP2;ratioP2
19519;SDS011;9904;52.246;20.898;2023-01-23T00:02:06;53.10;;;21.80;;
19519;SDS011;9904;52.246;20.898;2023-01-23T00:04:33;56.07;;;20.30;;
19519;SDS011;9904;52.246;20.898;2023-01-23T00:06:59;57.83;;;19.93;;
19519;SDS011;9904;52.246;20.898;2023-01-23T00:09:28;53.67;;;21.67;;
19519;SDS011;9904;52.246;20.898;2023-01-23T00:11:55;54.90;;;21.37;;
19519;SDS011;9904;52.246;20.898;2023-01-23T00:14:21;67.57;;;23.60;;
19519;SDS011;9904;52.246;20.898;2023-01-23T00:16:48;64.23;;;21.50;;
19519;SDS011;9904;52.246;20.898;2023-01-23T00:19:14;57.97;;;21.40;;
19519;SDS011;9904;52.246;20.898;2023-01-23T00:21:41;66.07;;;22.97;;
19519;SDS011;9904;52.246;20.898;2023-01-23T00:24:08;61.03;;;21.83;;
19519;SDS011;9904;52.246;20.898;2023-01-23T00:26:36;67.43;;;22.53;;
19519;SDS011;9904;52.246;20.898;2023-01-23T00:29:03;68.10;;;23.40;;
19519;SDS011;9904;52.246;20.898;2023-01-23T00:31:31;66.37;;;22.97;;
19519;SDS011;9904;52.246;20.898;2023-01-23T00:34:04;60.37;;;22.77;;
19519;SDS011;9904;52.246;20.898;2023-01-23T00:36:33;61.83;;;23.30;;
19519;SDS011;9904;52.246;20.898;2023-01-23T00:39:02;62.00;;;22.87;;
19519;SDS011;9904;52.246;20.898;2023-01-23T00:41:32;65.97;;;23.17;;
19519;SDS011;9904;52.246;20.898;2023-01-23T00:43:58;71.23;;;24.07;;
19519;SDS011;9904;52.246;20.898;2023-01-23T00:46:25;75.57;;;22.30;;
19519;SDS011;9904;52.246;20.898;2023-01-23T00:48:52;64.53;;;23.07;;
19519;SDS011;9904;52.246;20.898;2023-01-23T00:51:18;64.70;;;23.63;;
19519;SDS011;9904;52.246;20.898;2023-01-23T00:53:45;63.73;;;23.23;;
19519;SDS011;9904;52.246;20.898;2023-01-23T00:56:12;69.83;;;23.83;;
19519;SDS011;9904;52.246;20.898;2023-01-23T00:58:38;68.50;;;23.63;;
19519;SDS011;9904;52.246;20.898;2023-01-23T01:01:10;70.27;;;23.50;;
19519;SDS011;9904;52.246;20.898;2023-01-23T01:03:36;57.00;;;21.90;;
19519;SDS011;9904;52.246;20.898;2023-01-23T01:06:03;67.17;;;23.57;;
19519;SDS011;9904;52.246;20.898;2023-01-23T01:08:30;69.53;;;22.97;;
19519;SDS011;9904;52.246;20.898;2023-01-23T01:10:56;75.33;;;23.67;;
19519;SDS011;9904;52.246;20.898;2023-01-23T01:13:23;70.47;;;23.90;;
19519;SDS011;9904;52.246;20.898;2023-01-23T01:15:50;73.87;;;23.80;;
19519;SDS011;9904;52.246;20.898;2023-01-23T01:18:18;77.90;;;23.07;;
19519;SDS011;9904;52.246;20.898;2023-01-23T01:20:46;78.80;;;22.80;;
19519;SDS011;9904;52.246;20.898;2023-01-23T01:23:13;69.40;;;23.20;;
19519;SDS011;9904;52.246;20.898;2023-01-23T01:25:40;67.77;;;22.37;;
19519;SDS011;9904;52.246;20.898;2023-01-23T01:28:06;77.23;;;23.47;;
19519;SDS011;9904;52.246;20.898;2023-01-23T01:30:33;81.77;;;24.53;;
19519;SDS011;9904;52.246;20.898;2023-01-23T01:33:02;76.30;;;22.97;;
19519;SDS011;9904;52.246;20.898;2023-01-23T01:35:28;72.10;;;23.37;;
19519;SDS011;9904;52.246;20.898;2023-01-23T01:37:55;78.87;;;24.03;;
19519;SDS011;9904;52.246;20.898;2023-01-23T01:40:23;75.73;;;23.77;;
19519;SDS011;9904;52.246;20.898;2023-01-23T01:42:53;72.40;;;23.60;;
19519;SDS011;9904;52.246;20.898;2023-01-23T01:51:00;71.57;;;23.13;;
19519;SDS011;9904;52.246;20.898;2023-01-23T01:53:30;75.70;;;23.43;;
19519;SDS011;9904;52.246;20.898;2023-01-23T01:55:58;79.20;;;23.77;;
19519;SDS011;9904;52.246;20.898;2023-01-23T01:58:25;80.00;;;24.03;;
19519;SDS011;9904;52.246;20.898;2023-01-23T02:00:52;85.50;;;24.60;;
19519;SDS011;9904;52.246;20.898;2023-01-23T02:03:20;82.07;;;22.80;;
19519;SDS011;9904;52.246;20.898;2023-01-23T02:05:47;77.73;;;24.77;;
19519;SDS011;9904;52.246;20.898;2023-01-23T02:11:07;78.03;;;24.50;;
19519;SDS011;9904;52.246;20.898;2023-01-23T02:13:37;83.77;;;23.40;;
19519;SDS011;9904;52.246;20.898;2023-01-23T02:16:06;86.73;;;24.77;;
19519;SDS011;9904;52.246;20.898;2023-01-23T02:18:34;87.63;;;24.37;;
19519;SDS011;9904;52.246;20.898;2023-01-23T02:21:05;88.77;;;25.00;;
19519;SDS011;9904;52.246;20.898;2023-01-23T02:26:44;75.83;;;24.30;;
19519;SDS011;9904;52.246;20.898;2023-01-23T02:29:11;85.63;;;25.80;;
19519;SDS011;9904;52.246;20.898;2023-01-23T02:31:38;84.50;;;25.87;;
19519;SDS011;9904;52.246;20.898;2023-01-23T02:34:08;87.53;;;24.90;;
19519;SDS011;9904;52.246;20.898;2023-01-23T02:36:36;81.47;;;23.07;;
19519;SDS011;9904;52.246;20.898;2023-01-23T02:39:06;89.50;;;25.57;;
19519;SDS011;9904;52.246;20.898;2023-01-23T02:41:39;95.10;;;25.53;;
19519;SDS011;9904;52.246;20.898;2023-01-23T02:44:21;102.23;;;25.70;;
19519;SDS011;9904;52.246;20.898;2023-01-23T02:46:56;83.00;;;25.07;;
19519;SDS011;9904;52.246;20.898;2023-01-23T02:49:24;90.03;;;25.00;;
19519;SDS011;9904;52.246;20.898;2023-01-23T02:51:52;86.07;;;24.57;;
19519;SDS011;9904;52.246;20.898;2023-01-23T02:54:19;86.67;;;24.20;;
19519;SDS011;9904;52.246;20.898;2023-01-23T02:56:46;90.60;;;25.43;;
19519;SDS011;9904;52.246;20.898;2023-01-23T02:59:13;77.20;;;24.03;;
19519;SDS011;9904;52.246;20.898;2023-01-23T03:01:58;88.10;;;24.40;;
19519;SDS011;9904;52.246;20.898;2023-01-23T03:04:25;94.60;;;25.67;;
19519;SDS011;9904;52.246;20.898;2023-01-23T03:06:52;94.17;;;27.23;;
19519;SDS011;9904;52.246;20.898;2023-01-23T03:09:18;93.67;;;26.40;;
19519;SDS011;9904;52.246;20.898;2023-01-23T03:11:45;95.73;;;27.37;;
19519;SDS011;9904;52.246;20.898;2023-01-23T03:14:13;91.40;;;25.90;;
19519;SDS011;9904;52.246;20.898;2023-01-23T03:16:41;104.70;;;26.70;;
19519;SDS011;9904;52.246;20.898;2023-01-23T03:19:08;104.43;;;26.97;;
19519;SDS011;9904;52.246;20.898;2023-01-23T03:21:36;93.60;;;26.20;;
19519;SDS011;9904;52.246;20.898;2023-01-23T03:24:07;99.47;;;25.03;;
19519;SDS011;9904;52.246;20.898;2023-01-23T03:26:37;100.40;;;26.70;;
19519;SDS011;9904;52.246;20.898;2023-01-23T03:29:05;86.83;;;25.03;;
19519;SDS011;9904;52.246;20.898;2023-01-23T03:31:50;99.70;;;26.77;;
19519;SDS011;9904;52.246;20.898;2023-01-23T03:34:17;91.23;;;22.93;;
19519;SDS011;9904;52.246;20.898;2023-01-23T03:36:44;96.00;;;24.47;;
19519;SDS011;9904;52.246;20.898;2023-01-23T03:39:11;97.33;;;24.93;;
19519;SDS011;9904;52.246;20.898;2023-01-23T03:41:56;92.37;;;26.77;;
19519;SDS011;9904;52.246;20.898;2023-01-23T03:44:23;102.00;;;26.37;;
19519;SDS011;9904;52.246;20.898;2023-01-23T03:46:50;95.47;;;25.40;;
19519;SDS011;9904;52.246;20.898;2023-01-23T03:49:17;104.40;;;25.90;;
19519;SDS011;9904;52.246;20.898;2023-01-23T03:51:44;94.40;;;24.80;;
19519;SDS011;9904;52.246;20.898;2023-01-23T03:54:11;95.03;;;26.97;;
19519;SDS011;9904;52.246;20.898;2023-01-23T03:56:40;90.97;;;25.77;;
19519;SDS011;9904;52.246;20.898;2023-01-23T03:59:08;92.17;;;24.50;;
19519;SDS011;9904;52.246;20.898;2023-01-23T04:01:35;93.97;;;25.57;;
19519;SDS011;9904;52.246;20.898;2023-01-23T04:04:01;90.63;;;25.63;;
19519;SDS011;9904;52.246;20.898;2023-01-23T04:06:28;89.47;;;24.57;;
19519;SDS011;9904;52.246;20.898;2023-01-23T04:08:55;92.43;;;24.93;;
19519;SDS011;9904;52.246;20.898;2023-01-23T04:11:25;92.83;;;25.83;;
19519;SDS011;9904;52.246;20.898;2023-01-23T04:13:53;81.00;;;24.07;;
19519;SDS011;9904;52.246;20.898;2023-01-23T04:16:20;82.40;;;23.20;;
19519;SDS011;9904;52.246;20.898;2023-01-23T04:18:48;78.67;;;24.33;;
19519;SDS011;9904;52.246;20.898;2023-01-23T04:21:16;95.77;;;27.80;;
19519;SDS011;9904;52.246;20.898;2023-01-23T04:23:42;89.20;;;24.57;;
19519;SDS011;9904;52.246;20.898;2023-01-23T04:26:09;110.13;;;27.13;;
19519;SDS011;9904;52.246;20.898;2023-01-23T04:28:35;86.77;;;25.77;;
19519;SDS011;9904;52.246;20.898;2023-01-23T04:31:02;98.77;;;25.37;;
19519;SDS011;9904;52.246;20.898;2023-01-23T04:33:29;89.00;;;25.30;;
19519;SDS011;9904;52.246;20.898;2023-01-23T04:35:57;90.57;;;25.03;;
19519;SDS011;9904;52.246;20.898;2023-01-23T04:38:29;96.13;;;26.23;;
19519;SDS011;9904;52.246;20.898;2023-01-23T04:40:56;98.70;;;25.70;;
19519;SDS011;9904;52.246;20.898;2023-01-23T04:43:23;90.83;;;26.37;;
19519;SDS011;9904;52.246;20.898;2023-01-23T04:45:51;107.70;;;26.20;;
19519;SDS011;9904;52.246;20.898;2023-01-23T04:48:18;95.33;;;24.90;;
19519;SDS011;9904;52.246;20.898;2023-01-23T04:50:45;86.90;;;24.57;;
19519;SDS011;9904;52.246;20.898;2023-01-23T04:53:11;88.97;;;24.97;;
19519;SDS011;9904;52.246;20.898;2023-01-23T04:55:39;92.87;;;24.47;;
19519;SDS011;9904;52.246;20.898;2023-01-23T04:58:06;89.47;;;24.47;;
19519;SDS011;9904;52.246;20.898;2023-01-23T05:00:33;84.77;;;25.23;;
19519;SDS011;9904;52.246;20.898;2023-01-23T05:03:00;88.00;;;24.67;;
19519;SDS011;9904;52.246;20.898;2023-01-23T05:05:27;87.87;;;26.03;;
19519;SDS011;9904;52.246;20.898;2023-01-23T05:07:54;85.17;;;23.70;;
19519;SDS011;9904;52.246;20.898;2023-01-23T05:10:21;93.80;;;23.83;;
19519;SDS011;9904;52.246;20.898;2023-01-23T05:12:48;77.77;;;22.87;;
19519;SDS011;9904;52.246;20.898;2023-01-23T05:15:14;88.47;;;24.83;;
19519;SDS011;9904;52.246;20.898;2023-01-23T05:17:42;97.63;;;24.50;;
19519;SDS011;9904;52.246;20.898;2023-01-23T05:20:09;87.53;;;25.20;;
19519;SDS011;9904;52.246;20.898;2023-01-23T05:22:36;85.53;;;24.37;;
19519;SDS011;9904;52.246;20.898;2023-01-23T05:25:02;82.27;;;24.17;;
19519;SDS011;9904;52.246;20.898;2023-01-23T05:27:29;92.97;;;24.33;;
19519;SDS011;9904;52.246;20.898;2023-01-23T05:29:56;79.50;;;24.50;;
19519;SDS011;9904;52.246;20.898;2023-01-23T05:32:23;85.67;;;24.67;;
19519;SDS011;9904;52.246;20.898;2023-01-23T05:34:49;96.90;;;25.97;;
19519;SDS011;9904;52.246;20.898;2023-01-23T05:37:16;84.27;;;24.27;;
19519;SDS011;9904;52.246;20.898;2023-01-23T05:39:42;83.93;;;23.83;;
19519;SDS011;9904;52.246;20.898;2023-01-23T05:42:09;78.77;;;25.00;;
19519;SDS011;9904;52.246;20.898;2023-01-23T05:44:35;93.47;;;24.63;;
19519;SDS011;9904;52.246;20.898;2023-01-23T05:47:02;87.77;;;23.43;;
19519;SDS011;9904;52.246;20.898;2023-01-23T05:49:29;82.43;;;24.97;;
19519;SDS011;9904;52.246;20.898;2023-01-23T05:51:55;75.97;;;24.73;;
19519;SDS011;9904;52.246;20.898;2023-01-23T05:54:22;81.73;;;23.83;;
19519;SDS011;9904;52.246;20.898;2023-01-23T05:56:48;82.90;;;23.33;;
19519;SDS011;9904;52.246;20.898;2023-01-23T05:59:15;91.73;;;25.33;;
19519;SDS011;9904;52.246;20.898;2023-01-23T06:01:41;88.57;;;24.93;;
19519;SDS011;9904;52.246;20.898;2023-01-23T06:04:08;78.13;;;24.20;;
19519;SDS011;9904;52.246;20.898;2023-01-23T06:06:34;76.17;;;23.30;;
19519;SDS011;9904;52.246;20.898;2023-01-23T06:09:01;86.47;;;23.90;;
19519;SDS011;9904;52.246;20.898;2023-01-23T06:11:28;77.60;;;24.27;;
19519;SDS011;9904;52.246;20.898;2023-01-23T06:13:55;82.10;;;23.87;;
19519;SDS011;9904;52.246;20.898;2023-01-23T06:16:22;85.93;;;24.90;;
19519;SDS011;9904;52.246;20.898;2023-01-23T06:18:48;81.50;;;23.37;;
19519;SDS011;9904;52.246;20.898;2023-01-23T06:21:15;71.67;;;23.93;;
19519;SDS011;9904;52.246;20.898;2023-01-23T06:23:44;81.10;;;24.80;;
19519;SDS011;9904;52.246;20.898;2023-01-23T06:26:11;91.57;;;25.50;;
19519;SDS011;9904;52.246;20.898;2023-01-23T06:28:38;76.13;;;24.87;;
19519;SDS011;9904;52.246;20.898;2023-01-23T06:31:05;74.60;;;24.60;;
19519;SDS011;9904;52.246;20.898;2023-01-23T06:33:35;80.03;;;24.43;;
19519;SDS011;9904;52.246;20.898;2023-01-23T06:36:05;73.80;;;23.33;;
19519;SDS011;9904;52.246;20.898;2023-01-23T06:38:31;80.90;;;24.83;;
19519;SDS011;9904;52.246;20.898;2023-01-23T06:40:58;89.53;;;25.53;;
19519;SDS011;9904;52.246;20.898;2023-01-23T06:43:25;85.53;;;23.63;;
19519;SDS011;9904;52.246;20.898;2023-01-23T06:45:52;88.07;;;25.23;;
19519;SDS011;9904;52.246;20.898;2023-01-23T06:48:18;78.60;;;25.03;;
19519;SDS011;9904;52.246;20.898;2023-01-23T06:50:46;83.07;;;24.77;;
19519;SDS011;9904;52.246;20.898;2023-01-23T06:53:13;75.57;;;24.50;;
19519;SDS011;9904;52.246;20.898;2023-01-23T06:55:40;82.00;;;25.87;;
19519;SDS011;9904;52.246;20.898;2023-01-23T06:58:07;73.23;;;24.50;;
19519;SDS011;9904;52.246;20.898;2023-01-23T07:00:34;72.53;;;23.20;;
19519;SDS011;9904;52.246;20.898;2023-01-23T07:03:00;83.93;;;27.27;;
19519;SDS011;9904;52.246;20.898;2023-01-23T07:05:31;70.07;;;24.57;;
19519;SDS011;9904;52.246;20.898;2023-01-23T07:07:58;77.90;;;25.27;;
19519;SDS011;9904;52.246;20.898;2023-01-23T07:10:24;79.27;;;25.03;;
19519;SDS011;9904;52.246;20.898;2023-01-23T07:12:51;81.70;;;25.00;;
19519;SDS011;9904;52.246;20.898;2023-01-23T07:15:18;79.27;;;23.20;;
19519;SDS011;9904;52.246;20.898;2023-01-23T07:17:44;79.63;;;24.73;;
19519;SDS011;9904;52.246;20.898;2023-01-23T07:20:11;69.87;;;23.70;;
19519;SDS011;9904;52.246;20.898;2023-01-23T07:22:38;72.27;;;23.43;;
19519;SDS011;9904;52.246;20.898;2023-01-23T07:25:05;78.70;;;25.47;;
19519;SDS011;9904;52.246;20.898;2023-01-23T07:27:33;60.87;;;23.03;;
19519;SDS011;9904;52.246;20.898;2023-01-23T07:29:59;70.57;;;23.47;;
19519;SDS011;9904;52.246;20.898;2023-01-23T07:32:26;74.93;;;24.47;;
19519;SDS011;9904;52.246;20.898;2023-01-23T07:34:52;66.83;;;24.87;;
19519;SDS011;9904;52.246;20.898;2023-01-23T07:37:20;75.97;;;25.27;;
19519;SDS011;9904;52.246;20.898;2023-01-23T07:39:46;80.57;;;25.17;;
19519;SDS011;9904;52.246;20.898;2023-01-23T07:42:14;67.40;;;24.60;;
19519;SDS011;9904;52.246;20.898;2023-01-23T07:44:41;80.00;;;25.23;;
19519;SDS011;9904;52.246;20.898;2023-01-23T07:47:07;70.17;;;22.90;;
19519;SDS011;9904;52.246;20.898;2023-01-23T07:49:34;70.70;;;22.80;;
19519;SDS011;9904;52.246;20.898;2023-01-23T07:52:01;75.70;;;26.30;;
19519;SDS011;9904;52.246;20.898;2023-01-23T07:54:27;71.27;;;24.63;;
19519;SDS011;9904;52.246;20.898;2023-01-23T07:56:54;72.13;;;24.17;;
19519;SDS011;9904;52.246;20.898;2023-01-23T07:59:21;68.63;;;25.30;;
19519;SDS011;9904;52.246;20.898;2023-01-23T08:01:48;76.37;;;24.03;;
19519;SDS011;9904;52.246;20.898;2023-01-23T08:04:16;66.03;;;23.90;;
19519;SDS011;9904;52.246;20.898;2023-01-23T08:06:46;73.00;;;23.83;;
19519;SDS011;9904;52.246;20.898;2023-01-23T08:09:12;65.97;;;23.20;;
19519;SDS011;9904;52.246;20.898;2023-01-23T08:11:39;82.67;;;26.17;;
19519;SDS011;9904;52.246;20.898;2023-01-23T08:14:06;80.77;;;24.93;;
19519;SDS011;9904;52.246;20.898;2023-01-23T08:16:33;70.80;;;23.90;;
19519;SDS011;9904;52.246;20.898;2023-01-23T08:18:59;85.73;;;24.83;;
19519;SDS011;9904;52.246;20.898;2023-01-23T08:21:26;73.27;;;24.57;;
19519;SDS011;9904;52.246;20.898;2023-01-23T08:23:53;69.27;;;23.37;;
19519;SDS011;9904;52.246;20.898;2023-01-23T08:26:19;61.23;;;23.40;;
19519;SDS011;9904;52.246;20.898;2023-01-23T08:28:46;73.33;;;24.83;;
19519;SDS011;9904;52.246;20.898;2023-01-23T08:31:14;74.57;;;24.50;;
19519;SDS011;9904;52.246;20.898;2023-01-23T08:33:41;67.43;;;24.10;;
19519;SDS011;9904;52.246;20.898;2023-01-23T08:36:09;69.43;;;23.73;;
19519;SDS011;9904;52.246;20.898;2023-01-23T08:38:37;73.67;;;24.23;;
19519;SDS011;9904;52.246;20.898;2023-01-23T08:41:04;70.13;;;23.37;;
19519;SDS011;9904;52.246;20.898;2023-01-23T08:43:30;69.57;;;23.97;;
19519;SDS011;9904;52.246;20.898;2023-01-23T08:45:57;68.87;;;23.63;;
19519;SDS011;9904;52.246;20.898;2023-01-23T08:48:25;68.57;;;22.93;;
19519;SDS011;9904;52.246;20.898;2023-01-23T08:50:57;67.30;;;23.93;;
19519;SDS011;9904;52.246;20.898;2023-01-23T08:53:28;59.17;;;23.37;;
19519;SDS011;9904;52.246;20.898;2023-01-23T08:56:03;66.67;;;23.93;;
19519;SDS011;9904;52.246;20.898;2023-01-23T08:58:30;57.17;;;22.30;;
19519;SDS011;9904;52.246;20.898;2023-01-23T09:00:57;64.17;;;23.13;;
19519;SDS011;9904;52.246;20.898;2023-01-23T09:03:23;64.50;;;21.83;;
19519;SDS011;9904;52.246;20.898;2023-01-23T09:05:50;58.27;;;22.30;;
19519;SDS011;9904;52.246;20.898;2023-01-23T09:08:17;60.40;;;21.67;;
19519;SDS011;9904;52.246;20.898;2023-01-23T09:10:43;61.93;;;22.57;;
19519;SDS011;9904;52.246;20.898;2023-01-23T09:13:10;63.27;;;24.43;;
19519;SDS011;9904;52.246;20.898;2023-01-23T09:15:37;68.90;;;23.33;;
19519;SDS011;9904;52.246;20.898;2023-01-23T09:18:05;66.13;;;22.33;;
19519;SDS011;9904;52.246;20.898;2023-01-23T09:20:31;61.17;;;22.90;;
19519;SDS011;9904;52.246;20.898;2023-01-23T09:22:58;65.43;;;22.20;;
19519;SDS011;9904;52.246;20.898;2023-01-23T09:25:25;67.43;;;23.17;;
19519;SDS011;9904;52.246;20.898;2023-01-23T09:27:51;72.03;;;23.57;;
19519;SDS011;9904;52.246;20.898;2023-01-23T09:30:18;67.87;;;22.57;;
19519;SDS011;9904;52.246;20.898;2023-01-23T09:32:45;67.33;;;22.37;;
19519;SDS011;9904;52.246;20.898;2023-01-23T09:35:12;71.60;;;22.80;;
19519;SDS011;9904;52.246;20.898;2023-01-23T09:37:39;69.47;;;23.50;;
19519;SDS011;9904;52.246;20.898;2023-01-23T09:40:31;71.03;;;24.37;;
19519;SDS011;9904;52.246;20.898;2023-01-23T09:43:02;64.20;;;24.03;;
19519;SDS011;9904;52.246;20.898;2023-01-23T09:45:34;67.83;;;24.27;;
19519;SDS011;9904;52.246;20.898;2023-01-23T09:48:20;65.13;;;24.03;;
19519;SDS011;9904;52.246;20.898;2023-01-23T09:50:57;70.83;;;23.57;;
19519;SDS011;9904;52.246;20.898;2023-01-23T09:53:29;66.97;;;24.37;;
19519;SDS011;9904;52.246;20.898;2023-01-23T09:56:05;65.63;;;22.53;;
19519;SDS011;9904;52.246;20.898;2023-01-23T10:01:50;68.60;;;22.97;;
19519;SDS011;9904;52.246;20.898;2023-01-23T10:04:17;67.93;;;22.60;;
19519;SDS011;9904;52.246;20.898;2023-01-23T10:12:46;70.53;;;23.60;;
19519;SDS011;9904;52.246;20.898;2023-01-23T10:21:00;64.60;;;23.97;;
19519;SDS011;9904;52.246;20.898;2023-01-23T10:26:23;64.77;;;23.60;;
19519;SDS011;9904;52.246;20.898;2023-01-23T10:28:55;67.07;;;22.90;;
19519;SDS011;9904;52.246;20.898;2023-01-23T10:31:34;68.43;;;23.93;;
19519;SDS011;9904;52.246;20.898;2023-01-23T10:36:38;65.07;;;23.70;;
19519;SDS011;9904;52.246;20.898;2023-01-23T10:39:22;65.00;;;21.80;;
19519;SDS011;9904;52.246;20.898;2023-01-23T10:41:52;61.27;;;22.33;;
19519;SDS011;9904;52.246;20.898;2023-01-23T10:44:27;66.30;;;23.23;;
19519;SDS011;9904;52.246;20.898;2023-01-23T10:46:55;61.13;;;22.87;;
19519;SDS011;9904;52.246;20.898;2023-01-23T10:49:30;68.30;;;22.90;;
19519;SDS011;9904;52.246;20.898;2023-01-23T10:52:00;59.47;;;21.70;;
19519;SDS011;9904;52.246;20.898;2023-01-23T10:54:27;53.90;;;21.37;;
19519;SDS011;9904;52.246;20.898;2023-01-23T10:56:59;58.03;;;21.40;;
19519;SDS011;9904;52.246;20.898;2023-01-23T11:02:08;59.20;;;21.80;;
19519;SDS011;9904;52.246;20.898;2023-01-23T11:04:44;53.30;;;20.37;;
19519;SDS011;9904;52.246;20.898;2023-01-23T11:07:16;55.03;;;21.17;;
19519;SDS011;9904;52.246;20.898;2023-01-23T11:10:27;58.87;;;20.83;;
19519;SDS011;9904;52.246;20.898;2023-01-23T11:12:47;59.50;;;20.97;;
19519;SDS011;9904;52.246;20.898;2023-01-23T11:15:28;55.10;;;21.07;;
19519;SDS011;9904;52.246;20.898;2023-01-23T11:17:58;55.93;;;20.87;;
19519;SDS011;9904;52.246;20.898;2023-01-23T11:20:34;55.53;;;21.57;;
19519;SDS011;9904;52.246;20.898;2023-01-23T11:23:03;57.83;;;20.97;;
19519;SDS011;9904;52.246;20.898;2023-01-23T11:25:42;57.27;;;22.07;;
19519;SDS011;9904;52.246;20.898;2023-01-23T11:28:25;55.00;;;20.47;;
19519;SDS011;9904;52.246;20.898;2023-01-23T11:31:09;55.40;;;20.93;;
19519;SDS011;9904;52.246;20.898;2023-01-23T11:42:01;59.27;;;21.23;;
19519;SDS011;9904;52.246;20.898;2023-01-23T11:44:27;53.90;;;21.43;;
19519;SDS011;9904;52.246;20.898;2023-01-23T12:05:50;52.77;;;20.63;;
19519;SDS011;9904;52.246;20.898;2023-01-23T12:14:59;66.40;;;22.47;;
19519;SDS011;9904;52.246;20.898;2023-01-23T12:17:34;57.60;;;23.07;;
19519;SDS011;9904;52.246;20.898;2023-01-23T12:23:02;57.67;;;22.17;;
19519;SDS011;9904;52.246;20.898;2023-01-23T12:25:37;60.90;;;23.37;;
19519;SDS011;9904;52.246;20.898;2023-01-23T12:28:15;65.27;;;23.57;;
19519;SDS011;9904;52.246;20.898;2023-01-23T12:33:34;65.10;;;23.70;;
19519;SDS011;9904;52.246;20.898;2023-01-23T12:36:28;65.10;;;23.20;;
19519;SDS011;9904;52.246;20.898;2023-01-23T12:39:15;60.77;;;23.30;;
19519;SDS011;9904;52.246;20.898;2023-01-23T12:41:50;65.07;;;24.10;;
19519;SDS011;9904;52.246;20.898;2023-01-23T12:47:11;68.43;;;24.60;;
19519;SDS011;9904;52.246;20.898;2023-01-23T12:49:54;68.73;;;24.33;;
19519;SDS011;9904;52.246;20.898;2023-01-23T12:55:16;63.40;;;23.40;;
19519;SDS011;9904;52.246;20.898;2023-01-23T12:57:44;65.73;;;24.50;;
19519;SDS011;9904;52.246;20.898;2023-01-23T13:00:45;65.83;;;23.87;;
19519;SDS011;9904;52.246;20.898;2023-01-23T13:03:21;61.77;;;22.93;;
19519;SDS011;9904;52.246;20.898;2023-01-23T13:14:52;64.73;;;25.73;;
19519;SDS011;9904;52.246;20.898;2023-01-23T13:18:01;59.03;;;23.27;;
19519;SDS011;9904;52.246;20.898;2023-01-23T13:20:32;60.40;;;23.93;;
19519;SDS011;9904;52.246;20.898;2023-01-23T13:28:45;53.13;;;22.00;;
19519;SDS011;9904;52.246;20.898;2023-01-23T13:31:26;53.53;;;21.83;;
19519;SDS011;9904;52.246;20.898;2023-01-23T13:36:41;55.20;;;21.13;;
19519;SDS011;9904;52.246;20.898;2023-01-23T13:41:42;60.83;;;23.87;;
19519;SDS011;9904;52.246;20.898;2023-01-23T13:44:25;52.10;;;22.43;;
19519;SDS011;9904;52.246;20.898;2023-01-23T13:50:19;54.57;;;22.20;;
19519;SDS011;9904;52.246;20.898;2023-01-23T13:53:11;44.17;;;20.37;;
19519;SDS011;9904;52.246;20.898;2023-01-23T13:56:17;41.80;;;19.63;;
19519;SDS011;9904;52.246;20.898;2023-01-23T14:05:31;50.60;;;20.80;;
19519;SDS011;9904;52.246;20.898;2023-01-23T14:08:03;52.17;;;21.40;;
19519;SDS011;9904;52.246;20.898;2023-01-23T14:10:45;50.67;;;20.63;;
19519;SDS011;9904;52.246;20.898;2023-01-23T14:13:29;48.40;;;21.13;;
19519;SDS011;9904;52.246;20.898;2023-01-23T14:16:12;47.03;;;20.40;;
19519;SDS011;9904;52.246;20.898;2023-01-23T14:18:57;44.00;;;20.97;;
19519;SDS011;9904;52.246;20.898;2023-01-23T14:21:45;44.93;;;19.37;;
19519;SDS011;9904;52.246;20.898;2023-01-23T14:24:45;46.10;;;20.03;;
19519;SDS011;9904;52.246;20.898;2023-01-23T14:27:27;45.50;;;20.43;;
19519;SDS011;9904;52.246;20.898;2023-01-23T14:30:19;47.10;;;19.33;;
19519;SDS011;9904;52.246;20.898;2023-01-23T14:32:50;39.50;;;19.57;;
19519;SDS011;9904;52.246;20.898;2023-01-23T14:35:38;44.40;;;19.97;;
19519;SDS011;9904;52.246;20.898;2023-01-23T14:38:06;47.13;;;20.17;;
19519;SDS011;9904;52.246;20.898;2023-01-23T14:40:33;44.27;;;19.33;;
19519;SDS011;9904;52.246;20.898;2023-01-23T14:43:24;46.00;;;19.50;;
19519;SDS011;9904;52.246;20.898;2023-01-23T14:45:58;49.07;;;20.00;;
19519;SDS011;9904;52.246;20.898;2023-01-23T14:48:27;47.13;;;20.27;;
19519;SDS011;9904;52.246;20.898;2023-01-23T14:51:28;48.57;;;20.73;;
19519;SDS011;9904;52.246;20.898;2023-01-23T14:56:36;48.80;;;20.33;;
19519;SDS011;9904;52.246;20.898;2023-01-23T14:59:04;49.73;;;20.47;;
19519;SDS011;9904;52.246;20.898;2023-01-23T15:01:32;47.10;;;20.33;;
19519;SDS011;9904;52.246;20.898;2023-01-23T15:04:18;51.07;;;21.30;;
19519;SDS011;9904;52.246;20.898;2023-01-23T15:06:49;49.17;;;20.93;;
19519;SDS011;9904;52.246;20.898;2023-01-23T15:09:18;47.67;;;20.87;;
19519;SDS011;9904;52.246;20.898;2023-01-23T15:12:04;49.07;;;20.57;;
19519;SDS011;9904;52.246;20.898;2023-01-23T15:14:41;45.80;;;20.50;;
19519;SDS011;9904;52.246;20.898;2023-01-23T15:17:12;50.37;;;20.70;;
19519;SDS011;9904;52.246;20.898;2023-01-23T15:19:40;51.97;;;21.83;;
19519;SDS011;9904;52.246;20.898;2023-01-23T15:22:15;50.67;;;21.30;;
19519;SDS011;9904;52.246;20.898;2023-01-23T15:24:45;46.30;;;21.43;;
19519;SDS011;9904;52.246;20.898;2023-01-23T15:32:58;52.93;;;22.47;;
19519;SDS011;9904;52.246;20.898;2023-01-23T15:35:35;50.43;;;21.17;;
19519;SDS011;9904;52.246;20.898;2023-01-23T15:38:03;58.37;;;23.97;;
19519;SDS011;9904;52.246;20.898;2023-01-23T15:40:33;53.03;;;23.90;;
19519;SDS011;9904;52.246;20.898;2023-01-23T15:43:10;48.70;;;22.13;;
19519;SDS011;9904;52.246;20.898;2023-01-23T15:45:38;59.50;;;22.87;;
19519;SDS011;9904;52.246;20.898;2023-01-23T15:48:05;54.73;;;23.03;;
19519;SDS011;9904;52.246;20.898;2023-01-23T15:50:32;55.50;;;23.47;;
19519;SDS011;9904;52.246;20.898;2023-01-23T15:52:58;60.53;;;24.53;;
19519;SDS011;9904;52.246;20.898;2023-01-23T15:55:25;73.40;;;27.40;;
19519;SDS011;9904;52.246;20.898;2023-01-23T15:57:52;68.83;;;26.43;;
19519;SDS011;9904;52.246;20.898;2023-01-23T16:00:23;64.50;;;26.67;;
19519;SDS011;9904;52.246;20.898;2023-01-23T16:02:52;69.93;;;27.17;;
19519;SDS011;9904;52.246;20.898;2023-01-23T16:05:32;61.73;;;25.13;;
19519;SDS011;9904;52.246;20.898;2023-01-23T16:08:00;72.00;;;26.97;;
19519;SDS011;9904;52.246;20.898;2023-01-23T16:10:28;60.50;;;23.90;;
19519;SDS011;9904;52.246;20.898;2023-01-23T16:12:57;61.33;;;24.30;;
19519;SDS011;9904;52.246;20.898;2023-01-23T16:15:25;63.20;;;23.97;;
19519;SDS011;9904;52.246;20.898;2023-01-23T16:17:55;61.33;;;24.43;;
19519;SDS011;9904;52.246;20.898;2023-01-23T16:20:25;62.93;;;23.97;;
19519;SDS011;9904;52.246;20.898;2023-01-23T16:22:55;71.87;;;26.57;;
19519;SDS011;9904;52.246;20.898;2023-01-23T16:25:31;63.03;;;24.10;;
19519;SDS011;9904;52.246;20.898;2023-01-23T16:28:14;59.40;;;24.43;;
19519;SDS011;9904;52.246;20.898;2023-01-23T16:30:42;72.23;;;25.63;;
19519;SDS011;9904;52.246;20.898;2023-01-23T16:33:09;68.20;;;25.37;;
19519;SDS011;9904;52.246;20.898;2023-01-23T16:35:36;63.10;;;26.13;;
19519;SDS011;9904;52.246;20.898;2023-01-23T16:38:02;68.07;;;25.13;;